Time;durP1;ratioP1;P1;durP2;ratioP2;P2;SDS_P1;SDS_P2;PMS_P1;PMS_P2;Temp;Humidity;BMP_temperature;BMP_pressure;BME280_temperature;BME280_humidity;BME280_pressure;Samples;Min_cycle;Max_cycle;Signal;HPM_P1;HPM_P2
2023/04/10 00:02:16;;;;;;;;;;;231.10;2252.80;;;;;;5057439;28;19959;-78
2023/04/10 00:04:41;;;;;;;;;;;231.10;2252.80;;;;;;5057327;28;19905;-70
2023/04/10 00:07:07;;;;;;;;;;;231.20;2252.80;;;;;;5057188;28;20316;-69
2023/04/10 00:09:33;;;;;;;;;;;231.10;2252.80;;;;;;5057248;28;19905;-78
2023/04/10 00:11:58;;;;;;;;;;;231.10;2252.80;;;;;;5057371;28;19904;-73
2023/04/10 00:14:24;;;;;;;;;;;231.00;2252.80;;;;;;5056968;28;19915;-78
2023/04/10 00:16:49;;;;;;;;;;;231.00;2252.80;;;;;;5057193;28;19913;-78
2023/04/10 00:19:15;;;;;;;;;;;231.00;2252.80;;;;;;5057028;28;19908;-78
2023/04/10 00:21:41;;;;;;;;;;;230.90;2252.80;;;;;;5057357;28;19909;-68
2023/04/10 00:24:07;;;;;;;;;;;231.00;2252.80;;;;;;5056719;28;19947;-70
2023/04/10 00:26:33;;;;;;;;;;;231.00;2252.80;;;;;;5056898;28;19905;-70
2023/04/10 00:28:58;;;;;;;;;;;231.00;2252.80;;;;;;5056742;28;19909;-71
2023/04/10 00:31:24;;;;;;;;;;;231.00;2252.80;;;;;;5056746;28;19912;-69
2023/04/10 00:33:49;;;;;;;;;;;231.00;2252.80;;;;;;5056703;28;19909;-72
2023/04/10 00:36:16;;;;;;;;;;;230.90;2252.80;;;;;;5056705;28;20058;-70
2023/04/10 00:38:41;;;;;;;;;;;230.90;2252.80;;;;;;5056565;28;19912;-70
2023/04/10 00:41:07;;;;;;;;;;;230.90;2252.80;;;;;;5056805;28;19917;-71
2023/04/10 00:43:32;;;;;;;;;;;230.90;2252.80;;;;;;5056213;28;20379;-70
2023/04/10 00:45:58;;;;;;;;;;;230.90;2252.80;;;;;;5056345;28;20378;-69
2023/04/10 00:48:24;;;;;;;;;;;230.80;2252.80;;;;;;5056557;28;20274;-69
2023/04/10 00:50:49;;;;;;;;;;;230.80;2252.80;;;;;;5056478;28;20354;-70
2023/04/10 00:53:15;;;;;;;;;;;230.90;2252.80;;;;;;5082975;28;19905;-70
2023/04/10 00:55:41;;;;;;;;;;;230.80;2252.80;;;;;;5090183;28;20416;-70
2023/04/10 00:58:06;;;;;;;;;;;230.90;2252.80;;;;;;5083992;28;19912;-70
2023/04/10 01:00:32;;;;;;;;;;;230.80;2252.80;;;;;;5081127;28;20426;-70
2023/04/10 01:03:00;;;;;;;;;;;230.80;2252.80;;;;;;5084800;28;19931;-76
2023/04/10 01:05:29;;;;;;;;;;;230.80;2252.80;;;;;;5077666;28;19905;-76
2023/04/10 01:08:01;;;;;;;;;;;230.80;2252.80;;;;;;5074784;28;19904;-78
2023/04/10 01:10:32;;;;;;;;;;;230.80;2252.80;;;;;;5084265;28;19911;-75
2023/04/10 01:13:16;;;;;;;;;;;230.80;2252.80;;;;;;5075980;28;19904;-78
2023/04/10 01:16:05;;;;;;;;;;;230.90;2252.80;;;;;;5082120;28;19943;-70
2023/04/10 01:18:32;;;;;;;;;;;230.80;2252.80;;;;;;5071342;28;19921;-69
2023/04/10 01:21:01;;;;;;;;;;;230.80;2252.80;;;;;;5077249;28;19959;-68
2023/04/10 01:23:45;;;;;;;;;;;230.80;2252.80;;;;;;5091273;28;19944;-77
2023/04/10 01:26:12;;;;;;;;;;;230.60;2252.80;;;;;;5077166;28;19963;-70
2023/04/10 01:28:56;;;;;;;;;;;230.70;2252.80;;;;;;5074425;28;19999;-70
2023/04/10 01:31:25;;;;;;;;;;;230.70;2252.80;;;;;;5076305;28;19928;-77
2023/04/10 01:33:56;;;;;;;;;;;230.70;2252.80;;;;;;5074970;28;19943;-71
2023/04/10 01:36:25;;;;;;;;;;;230.70;2252.80;;;;;;5074411;28;19905;-70
2023/04/10 01:38:52;;;;;;;;;;;230.60;2252.80;;;;;;5079760;28;20243;-70
2023/04/10 01:41:18;;;;;;;;;;;230.50;2252.80;;;;;;5074136;28;20003;-70
2023/04/10 01:43:47;;;;;;;;;;;230.50;2252.80;;;;;;5076811;28;19959;-71
2023/04/10 01:46:12;;;;;;;;;;;230.50;2252.80;;;;;;5077362;28;19917;-71
2023/04/10 01:48:38;;;;;;;;;;;230.50;2252.80;;;;;;5076823;28;20364;-70
2023/04/10 01:51:05;;;;;;;;;;;230.50;2252.80;;;;;;5073951;28;19908;-70
2023/04/10 01:53:31;;;;;;;;;;;230.50;2252.80;;;;;;5074037;28;19927;-70
2023/04/10 01:55:57;;;;;;;;;;;230.60;2252.80;;;;;;5076674;28;20349;-75
2023/04/10 01:58:23;;;;;;;;;;;230.60;2252.80;;;;;;5074005;28;19950;-75
2023/04/10 02:00:49;;;;;;;;;;;230.60;2252.80;;;;;;5073494;28;20325;-74
2023/04/10 02:03:14;;;;;;;;;;;230.60;2252.80;;;;;;5076821;28;20018;-78
2023/04/10 02:05:47;;;;;;;;;;;230.60;2252.80;;;;;;5076583;28;20007;-78
2023/04/10 02:08:22;;;;;;;;;;;230.50;2252.80;;;;;;5074062;28;19942;-77
2023/04/10 02:10:51;;;;;;;;;;;230.50;2252.80;;;;;;5072583;28;19904;-70
2023/04/10 02:13:19;;;;;;;;;;;230.50;2252.80;;;;;;5076397;28;19904;-70
2023/04/10 02:15:46;;;;;;;;;;;230.50;2252.80;;;;;;5073243;28;20054;-70
2023/04/10 02:18:15;;;;;;;;;;;230.50;2252.80;;;;;;5073266;28;19908;-73
2023/04/10 02:20:41;;;;;;;;;;;230.50;2252.80;;;;;;5073355;28;20437;-70
2023/04/10 02:23:06;;;;;;;;;;;230.50;2252.80;;;;;;5084721;28;19999;-79
2023/04/10 02:25:32;;;;;;;;;;;230.50;2252.80;;;;;;5078781;28;19904;-70
2023/04/10 02:28:02;;;;;;;;;;;230.50;2252.80;;;;;;5072998;28;19904;-72
2023/04/10 02:30:28;;;;;;;;;;;230.50;2252.80;;;;;;5081367;28;20373;-70
2023/04/10 02:32:54;;;;;;;;;;;230.50;2252.80;;;;;;5076932;28;19911;-70
2023/04/10 02:35:21;;;;;;;;;;;230.50;2252.80;;;;;;5086124;28;19911;-72
2023/04/10 02:37:46;;;;;;;;;;;230.50;2252.80;;;;;;5073030;28;19943;-69
2023/04/10 02:40:12;;;;;;;;;;;230.50;2252.80;;;;;;5075658;28;19970;-78
2023/04/10 02:42:37;;;;;;;;;;;230.50;2252.80;;;;;;5072870;28;19950;-77
2023/04/10 02:45:03;;;;;;;;;;;230.50;2252.80;;;;;;5075477;28;19916;-71
2023/04/10 02:47:29;;;;;;;;;;;230.50;2252.80;;;;;;5076214;28;19912;-70
2023/04/10 02:49:54;;;;;;;;;;;230.60;2252.80;;;;;;5075828;28;19904;-78
2023/04/10 02:52:20;;;;;;;;;;;230.60;2252.80;;;;;;5072890;28;19908;-78
2023/04/10 02:54:46;;;;;;;;;;;230.60;2252.80;;;;;;5075341;28;19949;-70
2023/04/10 02:57:11;;;;;;;;;;;230.60;2252.80;;;;;;5072886;28;19904;-73
2023/04/10 02:59:37;;;;;;;;;;;230.50;2252.80;;;;;;5075168;28;19905;-71
2023/04/10 03:02:02;;;;;;;;;;;230.50;2252.80;;;;;;5072622;28;19904;-70
2023/04/10 03:04:30;;;;;;;;;;;230.60;2252.80;;;;;;5072517;28;19905;-71
2023/04/10 03:06:56;;;;;;;;;;;230.60;2252.80;;;;;;5070891;28;20277;-70
2023/04/10 03:09:21;;;;;;;;;;;230.60;2252.80;;;;;;5074412;28;19911;-70
2023/04/10 03:11:47;;;;;;;;;;;230.50;2252.80;;;;;;5075340;28;20357;-77
2023/04/10 03:14:12;;;;;;;;;;;230.50;2252.80;;;;;;5075122;28;20312;-77
2023/04/10 03:16:38;;;;;;;;;;;230.50;2252.80;;;;;;5075122;28;20308;-70
2023/04/10 03:19:03;;;;;;;;;;;230.50;2252.80;;;;;;5078103;28;19926;-69
2023/04/10 03:21:29;;;;;;;;;;;230.50;2252.80;;;;;;5080688;28;20315;-77
2023/04/10 03:23:55;;;;;;;;;;;230.50;2252.80;;;;;;5072301;28;19958;-71
2023/04/10 03:26:22;;;;;;;;;;;230.40;2252.80;;;;;;5075106;28;20349;-70
2023/04/10 03:28:48;;;;;;;;;;;230.40;2252.80;;;;;;5074980;28;19908;-70
2023/04/10 03:31:14;;;;;;;;;;;230.40;2252.80;;;;;;5077916;28;20238;-71
2023/04/10 03:33:40;;;;;;;;;;;205.70;2252.80;;;;;;5077467;28;19911;-71
2023/04/10 03:36:05;;;;;;;;;;;205.70;2252.80;;;;;;5075177;28;19912;-71
2023/04/10 03:38:31;;;;;;;;;;;205.70;2252.80;;;;;;5083350;28;19984;-70
2023/04/10 03:40:56;;;;;;;;;;;205.70;2252.80;;;;;;5080662;28;20005;-71
2023/04/10 03:43:23;;;;;;;;;;;205.70;2252.80;;;;;;5075485;28;20063;-70
2023/04/10 03:45:49;;;;;;;;;;;205.60;2252.80;;;;;;5088128;28;20003;-71
2023/04/10 03:48:15;;;;;;;;;;;205.50;2252.80;;;;;;5092281;28;20030;-70
2023/04/10 03:50:40;;;;;;;;;;;205.50;2252.80;;;;;;5074515;28;20292;-70
2023/04/10 03:53:06;;;;;;;;;;;205.40;2252.80;;;;;;5072281;28;19912;-70
2023/04/10 03:55:31;;;;;;;;;;;205.30;2252.80;;;;;;5072167;28;19905;-78
2023/04/10 03:57:57;;;;;;;;;;;205.40;2252.80;;;;;;5072580;28;19904;-74
2023/04/10 04:00:23;;;;;;;;;;;205.40;2252.80;;;;;;5073919;28;20316;-72
2023/04/10 04:02:49;;;;;;;;;;;205.40;2252.80;;;;;;5072346;28;20352;-70
2023/04/10 04:05:14;;;;;;;;;;;205.30;2252.80;;;;;;5074887;28;20277;-69
2023/04/10 04:07:40;;;;;;;;;;;205.40;2252.80;;;;;;5081483;28;19908;-78
2023/04/10 04:10:06;;;;;;;;;;;205.50;2252.80;;;;;;5082426;28;19904;-70
2023/04/10 04:12:31;;;;;;;;;;;205.40;2252.80;;;;;;5080329;28;19966;-76
2023/04/10 04:14:57;;;;;;;;;;;205.50;2252.80;;;;;;5074502;28;19922;-68
2023/04/10 04:17:22;;;;;;;;;;;205.40;2252.80;;;;;;5071723;28;19908;-75
2023/04/10 04:19:48;;;;;;;;;;;205.50;2252.80;;;;;;5077387;28;19915;-74
2023/04/10 04:22:14;;;;;;;;;;;205.50;2252.80;;;;;;5074743;28;19905;-76
2023/04/10 04:24:39;;;;;;;;;;;205.50;2252.80;;;;;;5074999;28;20369;-69
2023/04/10 04:27:06;;;;;;;;;;;205.50;2252.80;;;;;;5076631;28;20369;-69
2023/04/10 04:29:31;;;;;;;;;;;205.50;2252.80;;;;;;5074556;28;19904;-71
2023/04/10 04:31:57;;;;;;;;;;;205.50;2252.80;;;;;;5074282;28;19904;-73
2023/04/10 04:34:22;;;;;;;;;;;205.40;2252.80;;;;;;5076860;28;19905;-70
2023/04/10 04:36:48;;;;;;;;;;;205.40;2252.80;;;;;;5081163;28;19928;-79
2023/04/10 04:39:14;;;;;;;;;;;205.40;2252.80;;;;;;5083302;28;19904;-78
2023/04/10 04:41:40;;;;;;;;;;;205.40;2252.80;;;;;;5081249;28;19913;-72
2023/04/10 04:44:05;;;;;;;;;;;205.30;2252.80;;;;;;5078091;28;19905;-70
2023/04/10 04:46:31;;;;;;;;;;;205.20;2252.80;;;;;;5076925;28;19919;-70
2023/04/10 04:48:57;;;;;;;;;;;205.20;2252.80;;;;;;5078052;28;20346;-71
2023/04/10 04:51:23;;;;;;;;;;;205.10;2252.80;;;;;;5090404;28;19994;-69
2023/04/10 04:53:48;;;;;;;;;;;205.10;2252.80;;;;;;5096494;28;19904;-71
2023/04/10 04:56:14;;;;;;;;;;;205.10;2252.80;;;;;;5082652;28;19911;-70
2023/04/10 04:58:39;;;;;;;;;;;205.20;2252.80;;;;;;5096698;28;20361;-71
2023/04/10 05:01:05;;;;;;;;;;;205.20;2252.80;;;;;;5096236;28;19912;-79
2023/04/10 05:03:31;;;;;;;;;;;205.20;2252.80;;;;;;5096325;28;19908;-75
2023/04/10 05:05:56;;;;;;;;;;;205.20;2252.80;;;;;;5096215;28;20045;-79
2023/04/10 05:08:22;;;;;;;;;;;205.20;2252.80;;;;;;5096379;28;19904;-77
2023/04/10 05:10:47;;;;;;;;;;;205.20;2252.80;;;;;;5091653;28;19950;-69
2023/04/10 05:13:16;;;;;;;;;;;205.40;2252.80;;;;;;5075877;28;19905;-71
2023/04/10 05:15:42;;;;;;;;;;;205.50;2252.80;;;;;;5080649;28;19916;-70
2023/04/10 05:18:07;;;;;;;;;;;205.40;2252.80;;;;;;5095679;28;20319;-71
2023/04/10 05:20:34;;;;;;;;;;;205.50;2252.80;;;;;;5082366;28;19926;-77
2023/04/10 05:23:00;;;;;;;;;;;205.50;2252.80;;;;;;5095784;28;19904;-70
2023/04/10 05:25:25;;;;;;;;;;;205.40;2252.80;;;;;;5082655;28;20343;-73
2023/04/10 05:27:51;;;;;;;;;;;205.50;2252.80;;;;;;5095878;28;19904;-77
2023/04/10 05:30:17;;;;;;;;;;;205.50;2252.80;;;;;;5090719;28;19956;-78
2023/04/10 05:32:42;;;;;;;;;;;205.50;2252.80;;;;;;5087874;28;19949;-79
2023/04/10 05:35:08;;;;;;;;;;;205.50;2252.80;;;;;;5095921;28;19904;-73
2023/04/10 05:37:34;;;;;;;;;;;205.50;2252.80;;;;;;5096178;28;19911;-76
2023/04/10 05:39:59;;;;;;;;;;;205.50;2252.80;;;;;;5095632;28;19967;-72
2023/04/10 05:42:25;;;;;;;;;;;205.50;2252.80;;;;;;5083908;28;19930;-70
2023/04/10 05:44:51;;;;;;;;;;;205.50;2252.80;;;;;;5079340;28;20346;-75
2023/04/10 05:47:16;;;;;;;;;;;205.60;2252.80;;;;;;5093434;28;19912;-75
2023/04/10 05:49:42;;;;;;;;;;;205.60;2252.80;;;;;;5095324;28;19904;-70
2023/04/10 05:52:07;;;;;;;;;;;205.60;2252.80;;;;;;5095512;28;19904;-69
2023/04/10 05:54:33;;;;;;;;;;;205.70;2252.80;;;;;;5091655;28;19912;-79
2023/04/10 05:56:59;;;;;;;;;;;205.60;2252.80;;;;;;5085770;28;19947;-68
2023/04/10 05:59:24;;;;;;;;;;;205.60;2252.80;;;;;;5091430;28;19974;-79
2023/04/10 06:01:50;;;;;;;;;;;205.60;2252.80;;;;;;5085159;28;19973;-71
2023/04/10 06:04:15;;;;;;;;;;;205.70;2252.80;;;;;;5095166;28;19904;-78
2023/04/10 06:06:41;;;;;;;;;;;205.70;2252.80;;;;;;5095278;28;19904;-70
2023/04/10 06:09:07;;;;;;;;;;;205.70;2252.80;;;;;;5095133;28;19961;-74
2023/04/10 06:11:32;;;;;;;;;;;205.70;2252.80;;;;;;5095128;28;19964;-70
2023/04/10 06:13:58;;;;;;;;;;;230.40;2252.80;;;;;;5077628;28;19994;-76
2023/04/10 06:16:23;;;;;;;;;;;205.70;2252.80;;;;;;5084171;28;19940;-71
2023/04/10 06:18:51;;;;;;;;;;;205.70;2252.80;;;;;;5094849;28;20288;-78
2023/04/10 06:21:16;;;;;;;;;;;205.70;2252.80;;;;;;5095056;28;19912;-70
2023/04/10 06:23:42;;;;;;;;;;;205.70;2252.80;;;;;;5090787;28;19905;-69
2023/04/10 06:26:08;;;;;;;;;;;205.70;2252.80;;;;;;5073593;28;19927;-79
2023/04/10 06:28:33;;;;;;;;;;;205.70;2252.80;;;;;;5078440;28;19950;-71
2023/04/10 06:31:02;;;;;;;;;;;230.40;2252.80;;;;;;5094843;28;19904;-70
2023/04/10 06:33:27;;;;;;;;;;;230.40;2252.80;;;;;;5094471;28;19904;-71
2023/04/10 06:35:53;;;;;;;;;;;230.60;2252.80;;;;;;5094839;28;19957;-79
2023/04/10 06:38:18;;;;;;;;;;;230.70;2252.80;;;;;;5094396;28;19911;-70
2023/04/10 06:40:44;;;;;;;;;;;230.80;2252.80;;;;;;5094672;28;19912;-76
2023/04/10 06:43:10;;;;;;;;;;;231.00;2252.80;;;;;;5094248;28;19932;-69
2023/04/10 06:45:35;;;;;;;;;;;231.00;2252.80;;;;;;5094401;28;19959;-79
2023/04/10 06:48:01;;;;;;;;;;;231.00;2252.80;;;;;;5094189;28;20573;-77
2023/04/10 06:50:26;;;;;;;;;;;231.00;2252.80;;;;;;5084797;28;19904;-71
2023/04/10 06:52:54;;;;;;;;;;;231.00;2252.80;;;;;;5087577;28;20284;-73
2023/04/10 06:55:21;;;;;;;;;;;231.00;2252.80;;;;;;5084162;28;19924;-70
2023/04/10 06:57:47;;;;;;;;;;;231.10;2252.80;;;;;;5090968;28;19935;-70
2023/04/10 07:00:12;;;;;;;;;;;231.30;2252.80;;;;;;5083709;28;19912;-79
2023/04/10 07:02:38;;;;;;;;;;;256.20;2252.80;;;;;;5094114;28;19911;-75
2023/04/10 07:05:04;;;;;;;;;;;256.30;2252.80;;;;;;5084502;28;19905;-70
2023/04/10 07:07:30;;;;;;;;;;;256.50;2252.80;;;;;;5076620;28;19910;-70
2023/04/10 07:09:56;;;;;;;;;;;256.70;2252.80;;;;;;5094335;28;19994;-70
2023/04/10 07:12:22;;;;;;;;;;;256.90;2252.80;;;;;;5093788;28;19949;-74
2023/04/10 07:14:48;;;;;;;;;;;281.70;2278.40;;;;;;5093622;28;19908;-75
2023/04/10 07:17:13;;;;;;;;;;;282.00;2278.40;;;;;;5093804;28;19915;-70
2023/04/10 07:19:39;;;;;;;;;;;282.30;2278.40;;;;;;5093985;28;19911;-70
2023/04/10 07:22:04;;;;;;;;;;;282.40;2278.40;;;;;;5093257;28;19912;-71
2023/04/10 07:24:31;;;;;;;;;;;307.20;2304.00;;;;;;5093848;28;19908;-75
2023/04/10 07:26:57;;;;;;;;;;;307.30;2304.00;;;;;;5093808;28;19946;-70
2023/04/10 07:29:22;;;;;;;;;;;307.20;2304.00;;;;;;5093549;28;19904;-74
2023/04/10 07:31:48;;;;;;;;;;;307.20;2304.00;;;;;;5090758;28;19911;-78
2023/04/10 07:34:14;;;;;;;;;;;282.50;2278.40;;;;;;5081504;28;19904;-70
2023/04/10 07:36:39;;;;;;;;;;;307.30;2304.00;;;;;;5090909;28;20312;-71
2023/04/10 07:39:05;;;;;;;;;;;307.20;2304.00;;;;;;5082436;28;20323;-71
2023/04/10 07:41:30;;;;;;;;;;;307.20;2304.00;;;;;;5093361;28;19923;-70
2023/04/10 07:43:56;;;;;;;;;;;307.30;2304.00;;;;;;5093438;28;19904;-78
2023/04/10 07:46:21;;;;;;;;;;;307.30;2304.00;;;;;;5093243;28;20436;-70
2023/04/10 07:48:48;;;;;;;;;;;307.40;2304.00;;;;;;5093558;28;19931;-70
2023/04/10 07:51:14;;;;;;;;;;;307.50;2304.00;;;;;;5093212;28;19994;-70
2023/04/10 07:53:39;;;;;;;;;;;307.60;2304.00;;;;;;5094132;28;19950;-70
2023/04/10 07:56:05;;;;;;;;;;;307.60;2304.00;;;;;;5091326;28;19904;-77
2023/04/10 07:58:31;;;;;;;;;;;307.60;2304.00;;;;;;5082572;28;19908;-71
2023/04/10 08:00:57;;;;;;;;;;;307.60;2304.00;;;;;;5093501;28;20384;-71
2023/04/10 08:03:23;;;;;;;;;;;307.60;2304.00;;;;;;5084433;28;19904;-76
2023/04/10 08:05:48;;;;;;;;;;;307.70;2304.00;;;;;;5088883;28;20383;-77
2023/04/10 08:08:14;;;;;;;;;;;307.80;2304.00;;;;;;5094058;28;20003;-74
2023/04/10 08:10:40;;;;;;;;;;;307.80;2304.00;;;;;;5083903;28;20003;-74
2023/04/10 08:13:06;;;;;;;;;;;307.90;2304.00;;;;;;5097777;28;19942;-71
2023/04/10 08:15:31;;;;;;;;;;;308.10;2304.00;;;;;;5097002;28;19910;-71
2023/04/10 08:17:57;;;;;;;;;;;332.90;2329.60;;;;;;5097208;28;19912;-70
2023/04/10 08:20:23;;;;;;;;;;;333.00;2329.60;;;;;;5083256;28;19912;-77
2023/04/10 08:22:48;;;;;;;;;;;333.10;2329.60;;;;;;5097517;28;19904;-79
2023/04/10 08:25:14;;;;;;;;;;;333.30;2329.60;;;;;;5096878;28;19904;-70
2023/04/10 08:27:39;;;;;;;;;;;333.40;2329.60;;;;;;5097332;28;19911;-72
2023/04/10 08:30:05;;;;;;;;;;;333.60;2329.60;;;;;;5096886;28;19904;-77
2023/04/10 08:32:31;;;;;;;;;;;333.60;2329.60;;;;;;5097167;28;19908;-70
2023/04/10 08:34:57;;;;;;;;;;;333.60;2329.60;;;;;;5096688;28;19904;-70
2023/04/10 08:37:23;;;;;;;;;;;333.70;2329.60;;;;;;5096950;28;20357;-70
2023/04/10 08:39:48;;;;;;;;;;;358.40;2329.60;;;;;;5083475;28;19904;-71
2023/04/10 08:42:14;;;;;;;;;;;358.50;2329.60;;;;;;5096712;28;19918;-70
2023/04/10 08:44:40;;;;;;;;;;;358.50;2329.60;;;;;;5096340;28;19939;-70
2023/04/10 08:47:07;;;;;;;;;;;358.50;2329.60;;;;;;5096472;28;19912;-72
2023/04/10 08:49:39;;;;;;;;;;;358.60;2329.60;;;;;;5096061;28;19904;-70
2023/04/10 08:52:11;;;;;;;;;;;358.70;2329.60;;;;;;5096254;28;19904;-75
2023/04/10 08:54:37;;;;;;;;;;;358.80;2329.60;;;;;;5096245;28;19966;-70
2023/04/10 08:57:03;;;;;;;;;;;359.00;2329.60;;;;;;5096335;28;19904;-71
2023/04/10 08:59:30;;;;;;;;;;;359.10;2329.60;;;;;;5095019;28;20365;-78
2023/04/10 09:01:56;;;;;;;;;;;359.20;2329.60;;;;;;5085725;28;19912;-76
2023/04/10 09:04:23;;;;;;;;;;;359.30;2329.60;;;;;;5092888;28;19915;-72
2023/04/10 09:06:48;;;;;;;;;;;359.30;2329.60;;;;;;5095147;28;20389;-76
2023/04/10 09:09:14;;;;;;;;;;;384.10;2329.60;;;;;;5092589;28;19911;-70
2023/04/10 09:11:52;;;;;;;;;;;384.20;2329.60;;;;;;5086635;28;19911;-73
2023/04/10 09:14:24;;;;;;;;;;;384.30;2329.60;;;;;;5082456;28;19908;-70
2023/04/10 09:16:51;;;;;;;;;;;384.40;2329.60;;;;;;5096125;28;19908;-75
2023/04/10 09:19:29;;;;;;;;;;;384.50;2227.20;;;;;;5088977;28;20372;-74
2023/04/10 09:21:55;;;;;;;;;;;384.70;2329.60;;;;;;5090454;28;19919;-74
2023/04/10 09:24:21;;;;;;;;;;;384.90;2073.60;;;;;;5096277;28;19908;-74
2023/04/10 09:26:47;;;;;;;;;;;409.60;2022.40;;;;;;5095811;28;19929;-78
2023/04/10 09:29:13;;;;;;;;;;;409.90;2124.80;;;;;;5087704;28;19905;-75
2023/04/10 09:31:38;;;;;;;;;;;410.00;1996.80;;;;;;5077235;28;19904;-70
2023/04/10 09:34:07;;;;;;;;;;;410.10;1996.80;;;;;;5095794;28;19914;-70
2023/04/10 09:36:33;;;;;;;;;;;410.20;1920.00;;;;;;5095453;28;19958;-71
2023/04/10 09:38:58;;;;;;;;;;;410.30;1894.40;;;;;;5095750;28;19955;-78
2023/04/10 09:41:24;;;;;;;;;;;410.50;1792.00;;;;;;5095604;28;20006;-78
2023/04/10 09:44:04;;;;;;;;;;;435.30;1817.60;;;;;;5095905;28;19957;-70
2023/04/10 09:46:29;;;;;;;;;;;435.50;1766.40;;;;;;5091747;28;19966;-78
2023/04/10 09:48:55;;;;;;;;;;;435.20;1740.80;;;;;;5085712;28;19904;-73
2023/04/10 09:51:29;;;;;;;;;;;435.40;1689.60;;;;;;5095258;28;19908;-72
2023/04/10 09:53:54;;;;;;;;;;;410.50;1715.20;;;;;;5095451;28;20268;-71
2023/04/10 09:56:21;;;;;;;;;;;410.20;1715.20;;;;;;5095239;28;19904;-71
2023/04/10 09:58:48;;;;;;;;;;;410.10;1740.80;;;;;;5083654;28;19958;-72
2023/04/10 10:01:14;;;;;;;;;;;409.90;1689.60;;;;;;5080042;28;19912;-72
2023/04/10 10:03:40;;;;;;;;;;;410.00;1792.00;;;;;;5083130;28;19912;-71
2023/04/10 10:06:05;;;;;;;;;;;410.40;1766.40;;;;;;5093483;28;19904;-70
2023/04/10 10:08:32;;;;;;;;;;;435.20;1740.80;;;;;;5083008;28;20003;-78
2023/04/10 10:10:58;;;;;;;;;;;410.50;1664.00;;;;;;5093296;28;19904;-70
2023/04/10 10:13:30;;;;;;;;;;;410.30;1664.00;;;;;;5094782;28;19904;-70
2023/04/10 10:16:07;;;;;;;;;;;410.20;1664.00;;;;;;5094366;28;19915;-71
2023/04/10 10:18:32;;;;;;;;;;;435.20;1638.40;;;;;;5094732;28;20276;-76
2023/04/10 10:20:58;;;;;;;;;;;410.30;1664.00;;;;;;5086744;28;19920;-71
2023/04/10 10:23:24;;;;;;;;;;;410.20;1664.00;;;;;;5086353;28;20007;-71
2023/04/10 10:25:50;;;;;;;;;;;410.10;1664.00;;;;;;5082493;28;19911;-71
2023/04/10 10:28:16;;;;;;;;;;;410.30;1612.80;;;;;;5094526;28;19904;-71
2023/04/10 10:30:43;;;;;;;;;;;435.30;1612.80;;;;;;5093819;28;20380;-71
2023/04/10 10:33:09;;;;;;;;;;;435.60;1587.20;;;;;;5093119;28;19994;-70
2023/04/10 10:35:35;;;;;;;;;;;460.80;1561.60;;;;;;5082249;28;19912;-78
2023/04/10 10:38:02;;;;;;;;;;;461.00;1561.60;;;;;;5094540;28;19947;-77
2023/04/10 10:40:30;;;;;;;;;;;460.90;1510.40;;;;;;5094517;28;20444;-71
2023/04/10 10:43:18;;;;;;;;;;;435.90;1510.40;;;;;;5092632;28;19911;-77
2023/04/10 10:45:57;;;;;;;;;;;435.60;1536.00;;;;;;5085557;28;20033;-70
2023/04/10 10:48:23;;;;;;;;;;;435.40;1561.60;;;;;;5080589;28;20000;-75
2023/04/10 10:50:49;;;;;;;;;;;435.20;1561.60;;;;;;5094118;28;19990;-78
2023/04/10 10:53:34;;;;;;;;;;;435.20;1536.00;;;;;;5094470;28;19911;-77
2023/04/10 10:56:25;;;;;;;;;;;410.50;1561.60;;;;;;5091952;28;20006;-79
2023/04/10 10:58:53;;;;;;;;;;;410.50;1510.40;;;;;;5066904;28;19908;-70
2023/04/10 11:01:19;;;;;;;;;;;435.50;1561.60;;;;;;5071892;28;19917;-70
2023/04/10 11:03:45;;;;;;;;;;;435.90;1536.00;;;;;;5087154;28;19904;-71
2023/04/10 11:06:11;;;;;;;;;;;461.20;1484.80;;;;;;5081427;28;19908;-73
2023/04/10 11:08:41;;;;;;;;;;;486.40;1484.80;;;;;;5093666;28;19912;-77
2023/04/10 11:11:09;;;;;;;;;;;486.70;1433.60;;;;;;5094190;28;19904;-70
2023/04/10 11:13:36;;;;;;;;;;;487.00;1408.00;;;;;;5093624;28;19957;-77
2023/04/10 11:16:02;;;;;;;;;;;487.10;1356.80;;;;;;5091169;28;19919;-71
2023/04/10 11:18:43;;;;;;;;;;;487.10;1356.80;;;;;;5073430;28;19915;-71
2023/04/10 11:21:09;;;;;;;;;;;487.00;1382.40;;;;;;5092120;28;19938;-70
2023/04/10 11:23:34;;;;;;;;;;;486.50;1382.40;;;;;;5081566;28;20337;-70
2023/04/10 11:26:00;;;;;;;;;;;461.50;1408.00;;;;;;5059161;28;19974;-71
2023/04/10 11:28:33;;;;;;;;;;;486.50;1382.40;;;;;;5064334;28;19927;-69
2023/04/10 11:31:14;;;;;;;;;;;461.70;1408.00;;;;;;5059494;28;19958;-70
2023/04/10 11:33:40;;;;;;;;;;;486.70;1356.80;;;;;;5060238;28;19904;-71
2023/04/10 11:36:06;;;;;;;;;;;486.60;1356.80;;;;;;5067073;28;19904;-72
2023/04/10 11:38:33;;;;;;;;;;;487.10;1331.20;;;;;;5062555;28;19911;-69
2023/04/10 11:41:03;;;;;;;;;;;512.20;1305.60;;;;;;5064382;28;19959;-73
2023/04/10 11:43:29;;;;;;;;;;;512.20;1331.20;;;;;;5070920;28;19961;-72
2023/04/10 11:46:13;;;;;;;;;;;486.70;1305.60;;;;;;5063440;28;19916;-72
2023/04/10 11:48:39;;;;;;;;;;;461.70;1331.20;;;;;;5073005;28;19944;-70
2023/04/10 11:51:11;;;;;;;;;;;461.20;1408.00;;;;;;5075801;28;19940;-71
2023/04/10 11:53:37;;;;;;;;;;;461.10;1459.20;;;;;;5078303;28;20309;-72
2023/04/10 11:56:03;;;;;;;;;;;460.80;1459.20;;;;;;5065247;28;19956;-73
2023/04/10 11:58:29;;;;;;;;;;;436.00;1459.20;;;;;;5070945;28;19947;-71
2023/04/10 12:00:55;;;;;;;;;;;435.90;1433.60;;;;;;5063564;28;20381;-74
2023/04/10 12:03:34;;;;;;;;;;;435.80;1433.60;;;;;;5066633;28;19956;-71
2023/04/10 12:06:00;;;;;;;;;;;435.80;1459.20;;;;;;5070592;28;20269;-70
2023/04/10 12:08:46;;;;;;;;;;;461.20;1459.20;;;;;;5062946;28;19905;-72
2023/04/10 12:11:12;;;;;;;;;;;460.90;1433.60;;;;;;5065460;28;19953;-71
2023/04/10 12:13:37;;;;;;;;;;;436.10;1382.40;;;;;;5068490;28;19908;-70
2023/04/10 12:16:05;;;;;;;;;;;436.10;1382.40;;;;;;5063808;28;20373;-70
2023/04/10 12:18:31;;;;;;;;;;;461.10;1408.00;;;;;;5068551;28;20003;-72
2023/04/10 12:20:58;;;;;;;;;;;486.50;1382.40;;;;;;5067716;28;20020;-70
2023/04/10 12:23:24;;;;;;;;;;;486.80;1331.20;;;;;;5070529;28;19905;-71
2023/04/10 12:25:50;;;;;;;;;;;486.60;1331.20;;;;;;5064627;28;19996;-72
2023/04/10 12:28:16;;;;;;;;;;;486.50;1356.80;;;;;;5066517;28;19908;-71
2023/04/10 12:30:49;;;;;;;;;;;461.50;1382.40;;;;;;5072577;28;19999;-71
2023/04/10 12:33:19;;;;;;;;;;;461.10;1382.40;;;;;;5073032;28;20313;-74
2023/04/10 12:35:45;;;;;;;;;;;460.90;1408.00;;;;;;5069448;28;19908;-71
2023/04/10 12:38:10;;;;;;;;;;;436.10;1408.00;;;;;;5067530;28;20004;-72
2023/04/10 12:40:37;;;;;;;;;;;435.90;1433.60;;;;;;5065937;28;19912;-71
2023/04/10 12:43:03;;;;;;;;;;;435.70;1459.20;;;;;;5074738;28;19905;-72
2023/04/10 12:45:41;;;;;;;;;;;435.60;1459.20;;;;;;5068584;28;19939;-72
2023/04/10 12:48:06;;;;;;;;;;;435.50;1510.40;;;;;;5070203;28;19909;-76
2023/04/10 12:50:32;;;;;;;;;;;435.40;1510.40;;;;;;5063996;28;19913;-71
2023/04/10 12:53:06;;;;;;;;;;;435.30;1536.00;;;;;;5076195;28;19911;-74
2023/04/10 12:55:32;;;;;;;;;;;435.30;1510.40;;;;;;5063936;28;20380;-72
2023/04/10 12:57:57;;;;;;;;;;;435.20;1536.00;;;;;;5069046;28;19905;-71
2023/04/10 13:00:24;;;;;;;;;;;435.30;1536.00;;;;;;5061542;28;19908;-70
2023/04/10 13:02:49;;;;;;;;;;;435.20;1536.00;;;;;;5065476;28;19908;-72
2023/04/10 13:05:15;;;;;;;;;;;435.20;1510.40;;;;;;5067249;28;19904;-72
2023/04/10 13:07:41;;;;;;;;;;;435.20;1510.40;;;;;;5066285;28;19919;-73
2023/04/10 13:10:07;;;;;;;;;;;435.90;1484.80;;;;;;5064135;28;20357;-71
2023/04/10 13:12:33;;;;;;;;;;;461.00;1484.80;;;;;;5061127;28;19905;-74
2023/04/10 13:15:00;;;;;;;;;;;460.90;1459.20;;;;;;5067704;28;20021;-71
2023/04/10 13:17:26;;;;;;;;;;;436.10;1433.60;;;;;;5060383;28;19913;-76
2023/04/10 13:19:51;;;;;;;;;;;460.90;1484.80;;;;;;5059733;28;19977;-70
2023/04/10 13:22:17;;;;;;;;;;;435.70;1459.20;;;;;;5064658;28;20365;-72
2023/04/10 13:24:43;;;;;;;;;;;435.60;1459.20;;;;;;5068360;28;19951;-71
2023/04/10 13:27:09;;;;;;;;;;;435.60;1510.40;;;;;;5061118;28;20314;-72
2023/04/10 13:29:34;;;;;;;;;;;435.60;1484.80;;;;;;5059519;28;20357;-71
2023/04/10 13:32:02;;;;;;;;;;;435.50;1510.40;;;;;;5065301;28;20007;-71
2023/04/10 13:34:28;;;;;;;;;;;435.50;1484.80;;;;;;5063081;28;20362;-71
2023/04/10 13:36:54;;;;;;;;;;;435.40;1484.80;;;;;;5064862;28;20003;-78
2023/04/10 13:39:19;;;;;;;;;;;435.40;1459.20;;;;;;5060319;28;19911;-70
2023/04/10 13:41:45;;;;;;;;;;;435.50;1459.20;;;;;;5066470;28;20385;-72